Time;durP1;ratioP1;P1;durP2;ratioP2;P2;SDS_P1;SDS_P2;PMS_P1;PMS_P2;Temp;Humidity;BMP_temperature;BMP_pressure;BME280_temperature;BME280_humidity;BME280_pressure;Samples;Min_cycle;Max_cycle;Signal;HPM_P1;HPM_P2
2021/12/26 00:00:32;;;;;;;5.87;2.30;;;;;;;-9.89;67.34;98419.25;6097702;23;20018;-79
2021/12/26 00:02:58;;;;;;;4.32;2.03;;;;;;;-9.55;66.82;98483.91;6096131;23;20025;-79
2021/12/26 00:05:25;;;;;;;5.40;2.40;;;;;;;-9.57;66.98;98479.56;6099719;23;20026;-79
2021/12/26 00:07:51;;;;;;;4.70;2.37;;;;;;;-9.52;66.73;98474.78;6139719;23;20033;-79
2021/12/26 00:10:20;;;;;;;5.20;2.47;;;;;;;-9.72;66.85;98432.69;6095211;23;20118;-78
2021/12/26 00:12:47;;;;;;;4.60;2.60;;;;;;;-9.48;67.29;98464.91;6095181;23;20018;-78
2021/12/26 00:15:14;;;;;;;4.87;2.50;;;;;;;-9.59;67.29;98440.84;6119179;23;20097;-80
2021/12/26 00:17:40;;;;;;;8.07;2.60;;;;;;;-9.46;67.78;98459.94;6093741;23;20018;-79
2021/12/26 00:20:08;;;;;;;3.13;2.03;;;;;;;-9.75;67.38;98419.09;6094681;23;20360;-80
2021/12/26 00:22:34;;;;;;;5.17;2.67;;;;;;;-9.49;67.19;98459.81;6071699;23;20041;-79
2021/12/26 00:25:01;;;;;;;4.30;2.03;;;;;;;-9.54;67.01;98444.47;6121001;23;20110;-78
2021/12/26 00:27:28;;;;;;;6.37;2.63;;;;;;;-9.59;67.70;98433.28;6097827;23;20026;-80
2021/12/26 00:29:54;;;;;;;6.70;2.40;;;;;;;-9.61;67.35;98437.41;6052139;23;20025;-80
2021/12/26 00:32:20;;;;;;;5.93;3.07;;;;;;;-9.49;67.96;98452.25;6125089;23;20022;-79
2021/12/26 00:34:50;;;;;;;7.53;2.50;;;;;;;-9.53;67.79;98446.19;6074952;23;20018;-79
2021/12/26 00:37:17;;;;;;;2.93;1.50;;;;;;;-9.51;67.52;98456.34;6123965;23;20369;-78
2021/12/26 00:39:43;;;;;;;5.57;2.23;;;;;;;-9.50;68.04;98460.59;6123061;23;20022;-79
2021/12/26 00:42:09;;;;;;;6.00;2.40;;;;;;;-9.52;67.46;98442.88;6093834;23;20795;-79
2021/12/26 00:44:43;;;;;;;5.67;2.80;;;;;;;-9.58;68.07;98425.81;6048265;23;20074;-79
2021/12/26 00:47:11;;;;;;;4.97;2.20;;;;;;;-9.32;68.06;98458.97;6095794;23;20014;-78
2021/12/26 00:49:38;;;;;;;4.20;2.10;;;;;;;-9.31;67.98;98439.66;6119098;23;20045;-78
2021/12/26 00:52:05;;;;;;;4.17;2.37;;;;;;;-9.52;68.28;98410.13;6118743;23;20042;-78
2021/12/26 00:54:33;;;;;;;3.77;2.40;;;;;;;-9.23;67.97;98449.31;6102274;23;20030;-79
2021/12/26 00:57:00;;;;;;;4.00;2.33;;;;;;;-9.13;67.94;98460.72;6132826;23;20432;-79
2021/12/26 00:59:35;;;;;;;2.97;1.90;;;;;;;-9.20;67.81;98440.19;6118410;23;20036;-79
2021/12/26 01:02:11;;;;;;;4.97;2.27;;;;;;;-9.14;67.99;98430.41;6116997;23;20087;-78
2021/12/26 01:04:39;;;;;;;4.73;2.73;;;;;;;-8.96;68.25;98432.94;6096216;23;20360;-78
2021/12/26 01:07:19;;;;;;;4.13;2.20;;;;;;;-8.95;67.83;98427.09;6095438;23;20073;-78
2021/12/26 01:09:50;;;;;;;4.47;2.63;;;;;;;-8.70;68.33;98449.25;6096146;23;20025;-80
2021/12/26 01:12:20;;;;;;;3.37;2.10;;;;;;;-9.00;68.26;98371.41;6095495;23;20483;-77
2021/12/26 01:14:52;;;;;;;4.33;2.40;;;;;;;-8.78;68.11;98397.59;6120976;23;20050;-78
2021/12/26 01:17:41;;;;;;;5.67;2.37;;;;;;;-8.59;68.57;98411.91;6112637;23;20073;-78
2021/12/26 01:20:28;;;;;;;4.70;2.00;;;;;;;-8.48;68.25;98425.81;6095768;23;20527;-77
2021/12/26 01:22:54;;;;;;;4.00;1.90;;;;;;;-8.34;68.51;98449.16;6095436;23;20026;-78
2021/12/26 01:25:20;;;;;;;3.87;2.17;;;;;;;-8.35;67.96;98439.84;6094135;23;20046;-79
2021/12/26 01:27:46;;;;;;;2.20;1.70;;;;;;;-8.47;68.24;98429.22;6118080;23;20159;-80
2021/12/26 01:30:13;;;;;;;3.57;1.70;;;;;;;-8.43;68.34;98435.25;6095386;23;20025;-79
2021/12/26 01:32:44;;;;;;;4.07;1.83;;;;;;;-8.43;68.49;98435.25;6071766;23;20041;-77
2021/12/26 01:35:32;;;;;;;6.63;2.47;;;;;;;-8.40;68.67;98416.09;6106280;23;20030;-78
2021/12/26 01:38:20;;;;;;;3.53;1.90;;;;;;;-8.49;68.75;98411.50;6094445;23;20394;-80
2021/12/26 01:41:21;;;;;;;3.58;2.00;;;;;;;-8.42;68.55;98415.16;6048155;23;20108;-79
2021/12/26 01:44:03;;;;;;;6.80;2.03;;;;;;;-8.41;68.86;98421.94;6121544;23;20022;-81
2021/12/26 01:46:43;;;;;;;6.03;2.30;;;;;;;-8.39;68.98;98414.41;6052142;23;20077;-79
2021/12/26 01:49:15;;;;;;;3.93;1.80;;;;;;;-8.46;68.87;98415.81;6095730;23;20031;-79
2021/12/26 01:51:45;;;;;;;9.57;2.57;;;;;;;-8.51;68.72;98408.06;6118168;23;20032;-78
2021/12/26 01:54:14;;;;;;;3.93;1.80;;;;;;;-8.53;68.88;98397.03;6094877;23;20030;-78
2021/12/26 01:56:42;;;;;;;4.30;1.83;;;;;;;-8.37;68.73;98430.50;6095204;23;20041;-79
2021/12/26 01:59:12;;;;;;;3.43;1.87;;;;;;;-8.32;68.71;98431.56;6094682;23;20078;-80
2021/12/26 02:01:46;;;;;;;3.60;1.80;;;;;;;-8.32;68.99;98434.94;6094207;23;20187;-79
2021/12/26 02:04:12;;;;;;;3.70;2.07;;;;;;;-8.26;69.40;98420.88;6119277;23;20022;-80
2021/12/26 02:06:38;;;;;;;3.57;2.17;;;;;;;-8.23;68.95;98406.72;6069780;23;20461;-78
2021/12/26 02:09:07;;;;;;;4.27;1.90;;;;;;;-8.20;69.11;98388.31;6093600;23;20337;-79
2021/12/26 02:11:33;;;;;;;4.87;2.60;;;;;;;-8.02;69.13;98410.94;6093559;23;20018;-78
2021/12/26 02:13:59;;;;;;;4.77;2.30;;;;;;;-7.91;69.33;98404.72;6069690;23;20120;-79
2021/12/26 02:16:34;;;;;;;4.83;2.43;;;;;;;-7.86;69.04;98417.53;6047077;23;20014;-78
2021/12/26 02:19:01;;;;;;;7.30;2.77;;;;;;;-7.88;68.90;98414.94;6093558;23;20023;-77
2021/12/26 02:24:22;;;;;;;4.67;2.07;;;;;;;-8.02;68.66;98380.66;6093060;23;20460;-78
2021/12/26 02:27:33;;;;;;;4.07;2.23;;;;;;;-8.45;68.98;98321.66;6077578;23;20014;-78
2021/12/26 02:29:34;;;;;;;4.33;2.40;;;;;;;-8.10;69.18;98392.09;6089873;23;20029;-78
2021/12/26 02:32:00;;;;;;;3.57;1.83;;;;;;;-8.49;69.37;98338.31;6117998;23;20348;-78
2021/12/26 02:34:26;;;;;;;3.50;2.00;;;;;;;-8.39;69.42;98363.94;6092927;23;20018;-78
2021/12/26 02:36:53;;;;;;;3.50;1.90;;;;;;;-8.20;69.40;98394.22;6096285;23;20025;-78
2021/12/26 02:39:19;;;;;;;2.83;1.67;;;;;;;-8.22;69.47;98388.25;6127388;23;20002;-78
2021/12/26 02:41:45;;;;;;;5.80;2.33;;;;;;;-8.21;69.63;98384.91;6071976;23;20062;-77
2021/12/26 02:44:54;;;;;;;5.23;2.30;;;;;;;-8.34;69.19;98372.59;6082519;23;20066;-78
2021/12/26 02:47:50;;;;;;;4.33;2.07;;;;;;;-8.80;69.62;98331.06;6096942;23;20333;-79
2021/12/26 02:50:23;;;;;;;4.57;2.50;;;;;;;-8.32;69.79;98389.50;6096510;23;20105;-78
2021/12/26 02:52:50;;;;;;;3.73;2.07;;;;;;;-8.32;69.96;98396.22;6105266;23;20018;-79
2021/12/26 02:55:18;;;;;;;4.60;2.67;;;;;;;-8.37;69.79;98390.09;6112099;23;20014;-78
2021/12/26 02:57:52;;;;;;;3.13;2.13;;;;;;;-8.33;70.02;98386.94;6086448;23;20041;-80
2021/12/26 03:00:25;;;;;;;4.60;2.37;;;;;;;-8.37;69.64;98387.59;6100900;23;20021;-81
2021/12/26 03:02:57;;;;;;;4.47;2.40;;;;;;;-8.41;70.00;98368.06;6118589;23;20098;-78
2021/12/26 03:05:34;;;;;;;3.90;2.00;;;;;;;-8.50;69.68;98353.41;6092629;23;20018;-77
2021/12/26 03:08:00;;;;;;;4.70;2.17;;;;;;;-8.40;69.82;98380.75;6117876;23;20040;-78
2021/12/26 03:10:27;;;;;;;6.53;2.43;;;;;;;-8.40;70.13;98382.41;6094083;23;20022;-78
2021/12/26 03:12:56;;;;;;;4.50;2.10;;;;;;;-8.53;69.82;98345.72;6094754;23;20465;-78
2021/12/26 03:15:23;;;;;;;4.53;2.37;;;;;;;-8.50;70.13;98343.31;6094808;23;20045;-79
2021/12/26 03:17:49;;;;;;;4.67;2.30;;;;;;;-8.41;70.58;98358.84;6094784;23;20045;-76
2021/12/26 03:20:22;;;;;;;3.40;2.03;;;;;;;-8.49;69.94;98356.00;6094352;23;20384;-79
2021/12/26 03:22:51;;;;;;;5.57;2.60;;;;;;;-8.71;70.35;98313.84;6096436;23;20022;-77
2021/12/26 03:25:22;;;;;;;4.07;2.17;;;;;;;-8.52;70.32;98344.91;6074977;23;20025;-78
2021/12/26 03:27:50;;;;;;;4.53;2.22;;;;;;;-8.47;70.38;98359.41;6117547;23;20409;-77
2021/12/26 03:30:20;;;;;;;5.73;2.43;;;;;;;-8.46;70.71;98345.16;6069151;23;20700;-78
2021/12/26 03:33:09;;;;;;;6.10;2.30;;;;;;;-8.37;70.37;98354.78;6063160;23;20018;31
2021/12/26 03:35:37;;;;;;;6.33;2.30;;;;;;;-9.10;70.49;98240.69;6086016;23;20064;-79
2021/12/26 03:38:06;;;;;;;4.30;2.40;;;;;;;-8.31;70.73;98367.66;6089000;23;20558;-78
2021/12/26 03:40:56;;;;;;;4.47;2.20;;;;;;;-8.29;70.57;98355.09;6079847;23;20006;-79
2021/12/26 03:43:23;;;;;;;3.93;2.27;;;;;;;-8.36;70.61;98336.31;6113625;23;20019;-78
2021/12/26 03:45:51;;;;;;;5.03;2.40;;;;;;;-8.29;70.23;98352.56;6099281;23;20010;-79
2021/12/26 03:48:19;;;;;;;4.70;2.70;;;;;;;-8.32;70.43;98345.75;6065618;23;20024;-77
2021/12/26 03:50:46;;;;;;;7.17;2.60;;;;;;;-8.41;70.80;98326.03;6086023;23;20074;-78
2021/12/26 03:53:15;;;;;;;5.40;2.27;;;;;;;-8.29;70.72;98335.78;6060127;23;20390;-80
2021/12/26 03:55:45;;;;;;;5.97;2.00;;;;;;;-8.35;70.80;98335.53;6061323;23;20018;-79
2021/12/26 03:58:15;;;;;;;5.17;2.10;;;;;;;-8.32;70.56;98344.06;6085283;23;20046;-77
2021/12/26 04:00:42;;;;;;;6.60;2.37;;;;;;;-8.49;70.82;98312.25;6062877;23;20105;-77
2021/12/26 04:03:08;;;;;;;3.87;2.27;;;;;;;-8.28;70.66;98345.09;6087187;23;20223;-78
2021/12/26 04:05:42;;;;;;;5.83;2.77;;;;;;;-8.37;70.51;98321.97;6054156;23;20010;-77
2021/12/26 04:08:11;;;;;;;4.27;1.70;;;;;;;-8.29;70.31;98330.75;6114626;23;20066;-81
2021/12/26 04:10:40;;;;;;;3.83;2.33;;;;;;;-8.49;70.97;98300.47;6061612;23;20018;-79
2021/12/26 04:13:07;;;;;;;3.30;1.90;;;;;;;-8.38;70.70;98337.91;6080439;23;20018;-77
2021/12/26 04:15:33;;;;;;;4.00;2.57;;;;;;;-8.55;70.67;98305.28;6095318;23;20025;-78
2021/12/26 04:18:00;;;;;;;4.67;2.60;;;;;;;-8.61;70.65;98297.44;6046930;23;20022;-79
2021/12/26 04:20:28;;;;;;;4.73;2.20;;;;;;;-8.30;70.79;98343.28;6071990;23;20018;-78
2021/12/26 04:22:55;;;;;;;6.47;3.00;;;;;;;-8.32;71.23;98354.16;6071035;23;20029;-79
2021/12/26 04:25:22;;;;;;;12.00;2.37;;;;;;;-8.37;70.89;98345.53;6071077;23;20034;-80
2021/12/26 04:27:49;;;;;;;5.63;2.50;;;;;;;-8.36;70.97;98338.84;6097234;23;20022;-80
2021/12/26 04:30:19;;;;;;;4.40;2.57;;;;;;;-8.30;71.16;98344.16;6097679;23;20026;-77
2021/12/26 04:32:49;;;;;;;5.63;2.00;;;;;;;-8.36;70.90;98328.75;6097064;23;20073;-80
2021/12/26 04:35:16;;;;;;;5.80;2.90;;;;;;;-8.32;70.92;98340.69;6090496;23;20023;-80
2021/12/26 04:37:43;;;;;;;2.50;1.50;;;;;;;-8.53;70.99;98308.75;6067189;23;20127;-79
2021/12/26 04:40:13;;;;;;;4.73;2.30;;;;;;;-8.48;71.35;98301.34;6068072;23;20019;-78
2021/12/26 04:42:58;;;;;;;4.40;2.23;;;;;;;-8.37;71.15;98330.38;6069919;23;20110;-80
2021/12/26 04:45:43;;;;;;;3.60;1.93;;;;;;;-8.42;71.31;98315.84;6068114;23;20026;-80
2021/12/26 04:48:29;;;;;;;3.43;1.50;;;;;;;-8.38;71.32;98335.38;6068795;23;20452;-79
2021/12/26 04:50:55;;;;;;;5.30;2.40;;;;;;;-8.54;71.28;98301.09;6067993;23;20070;-80
2021/12/26 04:53:21;;;;;;;3.97;2.27;;;;;;;-8.41;71.32;98315.94;6068248;23;20026;-79
2021/12/26 04:55:47;;;;;;;2.67;1.70;;;;;;;-8.48;71.15;98324.06;6068247;23;20038;-78
2021/12/26 04:58:14;;;;;;;7.30;2.70;;;;;;;-8.44;71.17;98322.50;6044907;23;20569;-77
2021/12/26 05:00:40;;;;;;;4.80;2.00;;;;;;;-8.44;71.50;98330.94;6065948;23;20023;-78
2021/12/26 05:03:07;;;;;;;6.13;2.60;;;;;;;-8.49;71.69;98329.91;6065337;23;20026;-79
2021/12/26 05:05:34;;;;;;;4.50;2.37;;;;;;;-8.54;71.12;98314.59;6065851;23;20015;-78
2021/12/26 05:08:00;;;;;;;3.47;2.20;;;;;;;-8.66;71.35;98321.59;6066972;23;20026;-77
2021/12/26 05:10:28;;;;;;;3.17;2.00;;;;;;;-8.51;71.26;98339.94;6065858;23;20082;-79
2021/12/26 05:12:59;;;;;;;6.27;2.47;;;;;;;-8.48;71.28;98347.59;6042037;23;20049;-78
2021/12/26 05:15:26;;;;;;;3.43;1.97;;;;;;;-8.55;71.34;98340.59;6068690;23;20022;-78
2021/12/26 05:17:53;;;;;;;6.70;3.27;;;;;;;-8.62;71.16;98348.69;6060593;23;20057;-78
2021/12/26 05:20:22;;;;;;;4.50;2.50;;;;;;;-8.76;71.07;98317.81;6080628;23;20010;-77
2021/12/26 05:22:49;;;;;;;5.57;2.40;;;;;;;-8.55;71.57;98364.97;6087027;23;20022;-77
2021/12/26 05:25:15;;;;;;;4.30;2.47;;;;;;;-8.57;71.27;98367.44;6087877;23;20023;-78
2021/12/26 05:27:42;;;;;;;5.70;2.83;;;;;;;-8.72;71.25;98331.44;6075868;23;20485;-77
2021/12/26 05:30:13;;;;;;;5.03;2.63;;;;;;;-8.86;71.66;98301.41;6067269;23;20023;-78
2021/12/26 05:32:43;;;;;;;5.90;2.57;;;;;;;-8.54;71.91;98352.44;6065361;23;20018;-79
2021/12/26 05:35:11;;;;;;;6.33;2.77;;;;;;;-8.64;71.52;98345.25;6064713;23;20022;-78
2021/12/26 05:37:39;;;;;;;5.37;1.83;;;;;;;-8.54;71.66;98361.63;6064347;23;20100;-77
2021/12/26 05:43:46;;;;;;;7.97;2.57;;;;;;;-8.51;71.98;98365.19;6004415;23;20456;-79
2021/12/26 05:46:13;;;;;;;4.60;2.53;;;;;;;-8.40;71.89;98363.09;6042626;23;20015;-80
2021/12/26 05:48:40;;;;;;;6.60;2.70;;;;;;;-8.48;71.78;98327.41;6066425;23;20027;-77
2021/12/26 05:51:18;;;;;;;3.63;1.70;;;;;;;-8.48;71.44;98321.53;6019044;23;20018;-77
2021/12/26 05:54:04;;;;;;;5.67;2.40;;;;;;;-8.10;71.68;98355.06;6068674;23;20019;-78
2021/12/26 05:56:31;;;;;;;4.90;2.63;;;;;;;-8.11;71.85;98344.94;6067574;23;20034;-78
2021/12/26 05:59:00;;;;;;;6.13;2.63;;;;;;;-7.87;71.52;98355.19;6076403;23;20065;-78
2021/12/26 06:01:27;;;;;;;5.20;2.83;;;;;;;-7.83;71.57;98336.81;6052692;23;20023;-79
2021/12/26 06:03:52;;;;;;;6.97;2.53;;;;;;;-7.54;71.60;98364.94;6050237;23;20021;-79
2021/12/26 06:06:19;;;;;;;5.60;2.43;;;;;;;-7.76;71.29;98295.88;6068458;23;20070;-77
2021/12/26 06:08:46;;;;;;;6.32;2.80;;;;;;;-7.27;70.97;98341.53;6066219;23;20018;-78
2021/12/26 06:11:12;;;;;;;3.05;2.25;;;;;;;-7.30;70.93;98289.19;6068518;23;20344;-78
2021/12/26 06:13:38;;;;;;;5.85;2.65;;;;;;;-6.90;71.18;98342.06;6068565;23;20023;-77
2021/12/26 06:16:04;;;;;;;4.10;2.53;;;;;;;-7.02;70.84;98328.16;6043366;23;20018;-76
2021/12/26 06:19:26;;;;;;;4.35;2.47;;;;;;;-6.95;70.66;98344.44;6068845;23;20025;-78
2021/12/26 06:22:15;;;;;;;6.45;2.72;;;;;;;-7.20;70.77;98294.59;6068169;23;20025;-78
2021/12/26 06:25:04;;;;;;;5.82;2.78;;;;;;;-6.92;71.12;98342.03;6063153;23;20030;-78
2021/12/26 06:27:38;;;;;;;8.30;2.90;;;;;;;-6.90;71.13;98331.94;6084134;23;20074;-78
2021/12/26 06:30:16;;;;;;;6.90;2.75;;;;;;;-6.94;70.42;98342.75;6042908;23;20026;-78
2021/12/26 06:33:18;;;;;;;9.40;2.85;;;;;;;-7.00;70.58;98348.44;6068045;23;20050;-78
2021/12/26 06:36:18;;;;;;;5.10;2.80;;;;;;;-7.00;70.52;98320.63;6067779;23;20015;-78
2021/12/26 06:39:16;;;;;;;6.15;2.35;;;;;;;-7.93;70.63;98120.91;6065974;23;20014;-80
2021/12/26 06:42:08;;;;;;;5.63;2.90;;;;;;;-6.39;70.23;98273.00;6068072;23;20023;-79
2021/12/26 06:45:22;;;;;;;4.90;2.67;;;;;;;-6.77;69.39;98130.84;6066736;23;20022;-78
2021/12/26 06:48:39;;;;;;;4.32;2.30;;;;;;;-5.69;69.29;98344.53;6036912;23;20029;-79
2021/12/26 06:51:37;;;;;;;8.07;2.33;;;;;;;-6.78;69.24;98177.19;6042889;23;20489;-78
2021/12/26 06:54:06;;;;;;;5.68;2.88;;;;;;;-7.67;69.74;98057.00;6070528;23;20019;-80
2021/12/26 06:57:08;;;;;;;4.75;2.60;;;;;;;-6.90;69.29;98234.16;6014927;23;20206;-79
2021/12/26 07:00:03;;;;;;;6.30;2.80;;;;;;;-6.53;69.43;98293.66;6069517;23;20026;-77
2021/12/26 07:02:48;;;;;;;5.53;2.80;;;;;;;-7.00;69.58;98217.81;6050345;23;20051;-78
2021/12/26 07:05:31;;;;;;;5.82;2.70;;;;;;;-7.69;69.74;98094.84;6080594;23;20401;-79
2021/12/26 07:08:49;;;;;;;5.65;2.38;;;;;;;-7.67;69.37;98089.84;6082273;23;20110;-78
2021/12/26 07:11:22;;;;;;;5.07;2.58;;;;;;;-6.36;69.14;98304.38;6075123;23;20460;-79
2021/12/26 07:14:29;;;;;;;8.65;2.97;;;;;;;-6.23;69.30;98317.44;6048034;23;20042;-79
2021/12/26 07:17:29;;;;;;;5.38;2.78;;;;;;;-7.09;69.95;98166.88;6071124;23;20027;-77
2021/12/26 07:20:14;;;;;;;4.80;2.40;;;;;;;-6.68;69.80;98220.56;6026336;23;20019;-79
2021/12/26 07:23:15;;;;;;;6.82;2.88;;;;;;;-6.82;69.57;98181.31;6072292;23;20540;-80
2021/12/26 07:25:56;;;;;;;4.45;2.65;;;;;;;-6.02;69.51;98327.44;6044235;23;20021;-79
2021/12/26 07:29:01;;;;;;;6.90;2.78;;;;;;;-7.62;69.03;98053.84;6071821;23;20025;-80
2021/12/26 07:35:01;;;;;;;6.30;2.80;;;;;;;-6.63;69.32;98207.22;6070294;23;20022;-79
2021/12/26 07:37:29;;;;;;;8.02;3.08;;;;;;;-6.66;69.69;98191.13;6026742;23;20023;-79
2021/12/26 07:39:58;;;;;;;5.05;2.67;;;;;;;-6.20;69.79;98266.91;6070225;23;20025;-79
2021/12/26 07:42:26;;;;;;;4.78;2.95;;;;;;;-6.20;69.84;98292.22;6070604;23;20101;-77
2021/12/26 07:45:44;;;;;;;4.28;2.30;;;;;;;-7.07;69.44;98137.44;6070761;23;20074;-77
2021/12/26 07:48:32;;;;;;;8.32;2.70;;;;;;;-5.94;69.93;98295.56;6024379;23;20026;-78
2021/12/26 07:51:15;;;;;;;5.15;2.67;;;;;;;-6.24;69.12;98252.41;6044658;23;20029;-79
2021/12/26 07:54:44;;;;;;;5.80;2.65;;;;;;;-5.96;69.34;98292.16;6071385;23;20057;-78
2021/12/26 07:57:55;;;;;;;6.13;2.83;;;;;;;-5.94;69.90;98284.59;6040481;23;20078;-79
2021/12/26 08:00:55;;;;;;;4.75;2.55;;;;;;;-7.02;69.48;98120.78;6073365;23;20030;-77
2021/12/26 08:04:00;;;;;;;5.43;2.60;;;;;;;-6.00;69.23;98281.88;6035909;23;20014;-78
2021/12/26 08:06:45;;;;;;;3.67;2.08;;;;;;;-6.08;69.73;98257.19;6071315;23;20031;-79
2021/12/26 08:09:11;;;;;;;4.20;2.50;;;;;;;-6.03;69.99;98248.84;6068771;23;20019;-77
2021/12/26 08:11:37;;;;;;;3.97;2.13;;;;;;;-5.94;69.55;98244.06;6071014;23;20393;-77
2021/12/26 08:14:06;;;;;;;6.20;2.70;;;;;;;-6.63;69.85;98136.38;6020439;23;20387;-78
2021/12/26 08:16:36;;;;;;;6.88;2.67;;;;;;;-6.66;69.62;98122.81;6070299;23;20022;-79
2021/12/26 08:19:08;;;;;;;4.80;2.53;;;;;;;-5.86;69.80;98254.44;6069255;23;20019;-80
2021/12/26 08:21:40;;;;;;;5.72;2.38;;;;;;;-6.36;69.53;98149.03;6069679;23;20018;-78
2021/12/26 08:24:24;;;;;;;7.30;2.78;;;;;;;-5.88;68.90;98236.66;6071791;23;20018;-78
2021/12/26 08:27:19;;;;;;;3.97;2.42;;;;;;;-6.93;69.29;98046.00;6046493;23;20081;-78
2021/12/26 08:29:47;;;;;;;4.50;2.17;;;;;;;-6.41;68.99;98105.88;6022557;23;20022;-77
2021/12/26 08:32:17;;;;;;;6.28;2.92;;;;;;;-5.69;69.08;98214.41;6046024;23;20359;-78
2021/12/26 08:35:06;;;;;;;7.38;2.80;;;;;;;-5.40;69.45;98253.31;6043972;23;20110;-78
2021/12/26 08:37:50;;;;;;;6.13;2.40;;;;;;;-6.01;68.97;98148.44;6063933;23;20413;-80
2021/12/26 08:40:17;;;;;;;6.80;2.50;;;;;;;-5.30;69.04;98251.91;6042823;23;20105;-79
2021/12/26 08:42:58;;;;;;;4.90;1.92;;;;;;;-6.27;68.77;98105.44;6068852;23;20056;-78
2021/12/26 08:46:09;;;;;;;3.20;1.75;;;;;;;-6.71;69.29;98032.38;6073359;23;20030;-78
2021/12/26 08:48:47;;;;;;;5.45;2.75;;;;;;;-6.79;69.24;97981.53;6037227;23;20055;-77
2021/12/26 08:51:13;;;;;;;2.97;1.67;;;;;;;-6.22;68.66;98079.47;6059181;23;20122;-77
2021/12/26 08:53:49;;;;;;;4.53;2.22;;;;;;;-5.46;69.17;98182.13;6049081;23;20233;-80
2021/12/26 08:56:19;;;;;;;4.82;2.33;;;;;;;-5.68;68.81;98124.91;6039377;23;20023;-80
2021/12/26 08:58:59;;;;;;;5.57;2.95;;;;;;;-5.99;69.19;98083.44;6041521;23;20038;-80
2021/12/26 09:01:29;;;;;;;6.75;2.88;;;;;;;-5.07;68.69;98241.59;6039673;23;20019;-79
2021/12/26 09:03:55;;;;;;;5.15;2.88;;;;;;;-5.32;68.44;98182.53;6040393;23;20050;-77
2021/12/26 09:06:32;;;;;;;6.45;2.63;;;;;;;-5.64;68.73;98112.34;6041347;23;20052;-78
2021/12/26 09:09:11;;;;;;;5.68;2.10;;;;;;;-6.00;68.84;98048.81;6040365;23;20046;-77
2021/12/26 09:11:59;;;;;;;7.35;2.90;;;;;;;-4.90;69.07;98219.22;6060808;23;20035;-79
2021/12/26 09:14:30;;;;;;;4.53;2.45;;;;;;;-5.17;68.38;98166.91;6020250;23;20059;-78
2021/12/26 09:17:04;;;;;;;5.63;2.45;;;;;;;-4.91;68.88;98199.75;6042113;23;20015;-78
2021/12/26 09:19:38;;;;;;;6.68;2.65;;;;;;;-4.83;68.43;98213.47;6040291;23;20090;-79
2021/12/26 09:22:50;;;;;;;6.30;3.13;;;;;;;-6.45;68.41;97946.25;6041629;23;20691;-78
2021/12/26 09:25:28;;;;;;;6.65;3.00;;;;;;;-6.08;68.62;98011.50;6042969;23;20023;-78
2021/12/26 09:27:56;;;;;;;6.43;2.40;;;;;;;-6.30;69.18;97955.97;6043687;23;19999;-78
2021/12/26 09:30:34;;;;;;;6.82;2.13;;;;;;;-5.53;68.19;98068.72;6040095;23;20070;-79
2021/12/26 09:35:47;;;;;;;3.97;2.10;;;;;;;-5.66;68.30;98017.66;6095615;23;20030;-79
2021/12/26 09:38:19;;;;;;;6.28;2.90;;;;;;;-5.47;68.35;98062.13;6074618;23;20029;-80
2021/12/26 09:41:12;;;;;;;9.45;4.35;;;;;;;-6.21;68.28;97925.84;6051421;23;20021;-79
2021/12/26 09:43:39;;;;;;;15.55;4.47;;;;;;;-6.06;68.46;97950.72;6057946;23;20471;-82
2021/12/26 09:46:06;;;;;;;12.43;5.80;;;;;;;-5.08;68.39;98110.47;6025917;23;19994;-78
2021/12/26 09:48:33;;;;;;;13.30;5.75;;;;;;;-5.39;68.68;98042.03;6072658;23;20439;-79
2021/12/26 09:51:06;;;;;;;13.50;5.78;;;;;;;-4.73;68.99;98166.34;6100665;23;20029;-79
2021/12/26 09:53:42;;;;;;;13.25;6.28;;;;;;;-4.83;68.59;98142.41;6110709;23;20018;-82
2021/12/26 09:56:14;;;;;;;11.30;5.20;;;;;;;-4.55;68.55;98166.84;6115028;23;20022;-78
2021/12/26 09:58:52;;;;;;;9.13;4.68;;;;;;;-4.50;68.10;98181.31;6090465;23;20067;-76
2021/12/26 10:01:33;;;;;;;12.30;5.18;;;;;;;-4.83;68.41;98127.19;6100268;23;20018;-79
2021/12/26 10:04:16;;;;;;;13.88;5.55;;;;;;;-5.14;68.24;98055.38;6047659;23;20463;-81
2021/12/26 10:06:42;;;;;;;12.60;5.15;;;;;;;-4.33;68.45;98175.00;6094032;23;20105;-79
2021/12/26 10:09:09;;;;;;;13.07;6.00;;;;;;;-4.40;68.18;98148.56;6022543;23;20038;-81
2021/12/26 10:11:42;;;;;;;16.95;7.90;;;;;;;-4.40;68.43;98148.56;6095802;23;20105;-78
2021/12/26 10:14:08;;;;;;;16.67;7.35;;;;;;;-4.30;68.30;98161.50;6094600;23;20037;-81
2021/12/26 10:16:38;;;;;;;17.15;7.30;;;;;;;-4.28;68.33;98154.78;6075640;23;20018;-79
2021/12/26 10:19:06;;;;;;;20.02;9.30;;;;;;;-4.44;68.84;98112.91;6050423;23;20035;-81
2021/12/26 10:22:11;;;;;;;17.40;7.75;;;;;;;-4.14;68.51;98147.50;6106535;23;20029;-79
2021/12/26 10:25:22;;;;;;;19.55;8.20;;;;;;;-5.35;68.55;97944.94;6060739;23;20456;-78
2021/12/26 10:28:27;;;;;;;22.15;8.77;;;;;;;-4.05;68.21;98134.13;6091452;23;20018;-80
2021/12/26 10:31:08;;;;;;;17.80;7.97;;;;;;;-5.35;68.34;97917.06;6089709;23;20014;-80
2021/12/26 10:33:48;;;;;;;21.23;8.00;;;;;;;-5.14;68.16;97975.03;6016239;23;1162930;-80
2021/12/26 10:36:14;;;;;;;22.52;8.68;;;;;;;-4.34;68.66;98111.44;6041859;23;20022;-80
2021/12/26 10:38:40;;;;;;;21.25;9.43;;;;;;;-4.03;68.70;98135.88;6083866;23;20069;-81
2021/12/26 10:41:24;;;;;;;24.98;9.55;;;;;;;-3.96;68.63;98149.56;6078372;23;20337;-78
2021/12/26 10:43:50;;;;;;;22.93;9.13;;;;;;;-4.23;68.24;98089.72;6076231;23;20018;-79
2021/12/26 10:46:19;;;;;;;19.15;8.40;;;;;;;-4.14;68.59;98104.28;6074232;23;20019;-81
2021/12/26 10:48:47;;;;;;;19.70;7.28;;;;;;;-4.06;68.15;98120.56;6082815;23;20032;-79
2021/12/26 10:51:35;;;;;;;19.25;8.57;;;;;;;-4.04;68.49;98107.91;6087399;23;20142;-80
2021/12/26 10:54:18;;;;;;;18.80;8.20;;;;;;;-5.34;68.83;97897.63;6075067;23;20073;-79
2021/12/26 10:57:10;;;;;;;20.90;8.90;;;;;;;-4.15;68.28;98103.41;6050267;23;20468;-79
2021/12/26 10:59:41;;;;;;;15.55;6.55;;;;;;;-4.49;67.93;98038.28;6051841;23;20468;-78
2021/12/26 11:02:31;;;;;;;11.20;4.90;;;;;;;-4.41;67.89;98057.13;6071846;23;20067;-79
2021/12/26 11:05:26;;;;;;;15.45;6.50;;;;;;;-5.02;68.45;97948.25;6048979;23;20022;-79
2021/12/26 11:07:59;;;;;;;17.02;6.63;;;;;;;-4.21;68.28;98105.84;6079113;23;20444;-78
2021/12/26 11:10:33;;;;;;;20.20;8.90;;;;;;;-4.36;68.82;98075.00;6059916;23;20018;-79
2021/12/26 11:13:01;;;;;;;17.33;7.70;;;;;;;-4.56;68.36;98070.31;6048115;23;20257;-79
2021/12/26 11:15:37;;;;;;;21.17;8.18;;;;;;;-5.98;68.29;97824.25;6070929;23;20041;-78
2021/12/26 11:18:06;;;;;;;17.20;7.07;;;;;;;-4.64;68.62;98052.34;6072209;23;20364;-80
2021/12/26 11:20:33;;;;;;;18.20;8.00;;;;;;;-4.44;68.71;98095.13;6050292;23;20018;-79
2021/12/26 11:23:01;;;;;;;20.05;8.82;;;;;;;-4.69;69.24;98046.31;6098740;23;20077;-79
2021/12/26 11:25:27;;;;;;;15.80;5.65;;;;;;;-4.40;68.85;98100.31;6100550;23;20018;-80
2021/12/26 11:27:53;;;;;;;10.02;5.38;;;;;;;-5.16;68.63;97991.91;6078307;23;20037;-79
2021/12/26 11:30:21;;;;;;;14.30;5.65;;;;;;;-4.94;69.11;98035.56;6067951;23;20022;-80
2021/12/26 11:32:48;;;;;;;13.75;5.75;;;;;;;-4.86;69.34;98016.31;6116785;23;20057;-79
2021/12/26 11:35:15;;;;;;;12.55;5.63;;;;;;;-4.43;69.42;98085.03;6067520;23;20046;-80
2021/12/26 11:37:41;;;;;;;12.43;4.22;;;;;;;-5.12;69.52;97959.00;6039849;23;20342;-79
2021/12/26 11:40:25;;;;;;;9.32;4.45;;;;;;;-5.17;69.75;97982.56;6044797;23;20023;-78
2021/12/26 11:43:47;;;;;;;8.65;4.10;;;;;;;-4.25;69.94;98099.81;6085485;23;20436;-80
2021/12/26 11:47:05;;;;;;;6.07;2.92;;;;;;;-4.30;69.20;98095.47;6073265;23;20019;-78
2021/12/26 11:50:04;;;;;;;9.52;4.20;;;;;;;-4.34;69.96;98088.59;6053589;23;20050;-79
2021/12/26 11:53:19;;;;;;;7.60;3.35;;;;;;;-4.48;69.34;98075.56;6067338;23;20022;-79
2021/12/26 11:56:20;;;;;;;10.60;4.13;;;;;;;-4.42;69.31;98096.91;6074638;23;20027;-76
2021/12/26 11:59:04;;;;;;;;;;;;;;;-4.45;69.33;98090.88;6077676;23;20077;-78
2021/12/26 12:01:35;;;;;;;10.57;4.13;;;;;;;-4.69;69.79;98054.78;6060349;23;19910;-78
2021/12/26 12:04:23;;;;;;;7.22;3.08;;;;;;;-4.55;69.94;98065.28;6037685;23;20053;-78
2021/12/26 12:06:51;;;;;;;9.32;4.13;;;;;;;-4.59;69.86;98075.31;6027091;23;20042;-80
2021/12/26 12:09:42;;;;;;;7.55;3.60;;;;;;;-4.61;69.40;98057.50;6028055;23;20349;-79
2021/12/26 12:12:13;;;;;;;10.82;4.55;;;;;;;-4.55;69.39;98075.44;6067317;23;20070;-85
2021/12/26 12:14:56;;;;;;;5.22;2.67;;;;;;;-4.65;69.38;98070.94;6078107;23;20164;-79
2021/12/26 12:17:23;;;;;;;9.88;5.18;;;;;;;-4.70;69.74;98069.97;6054644;23;20023;-82
2021/12/26 12:20:06;;;;;;;15.00;5.15;;;;;;;-4.67;69.84;98071.75;6054952;23;20018;-77
2021/12/26 12:22:32;;;;;;;11.15;5.32;;;;;;;-4.74;69.87;98056.34;6053792;23;20057;-81
2021/12/26 12:25:33;;;;;;;9.48;4.35;;;;;;;-4.56;69.95;98076.25;6008654;23;20415;-82